createdAt,value
2023-04-20T00:01:48.051Z,33.30
2023-04-20T00:04:16.278Z,27.13
2023-04-20T00:06:45.002Z,30.80
2023-04-20T00:09:14.088Z,31.50
2023-04-20T00:11:41.998Z,24.30
2023-04-20T00:14:10.388Z,29.52
2023-04-20T00:16:39.804Z,26.77
2023-04-20T00:19:09.431Z,26.70
2023-04-20T00:21:37.401Z,28.90
2023-04-20T00:24:06.367Z,32.90
2023-04-20T00:26:34.361Z,31.13
2023-04-20T00:29:03.189Z,31.60
2023-04-20T00:31:31.906Z,30.38
2023-04-20T00:34:00.688Z,28.42
2023-04-20T00:36:34.111Z,32.30
2023-04-20T00:39:02.670Z,31.83
2023-04-20T00:41:30.740Z,32.05
2023-04-20T00:44:01.122Z,37.17
2023-04-20T00:46:29.386Z,27.77
2023-04-20T00:48:58.588Z,37.33
2023-04-20T00:51:27.678Z,38.42
2023-04-20T00:53:58.270Z,31.42
2023-04-20T00:56:27.034Z,30.95
2023-04-20T00:58:55.122Z,33.60
2023-04-20T01:01:23.661Z,33.80
2023-04-20T01:03:54.393Z,37.42
2023-04-20T01:06:22.959Z,31.33
2023-04-20T01:08:55.227Z,33.90
2023-04-20T01:11:23.311Z,32.50
2023-04-20T01:13:53.093Z,35.03
2023-04-20T01:16:21.757Z,34.72
2023-04-20T01:18:51.326Z,34.25
2023-04-20T01:21:21.985Z,32.63
2023-04-20T01:23:50.169Z,36.70
2023-04-20T01:26:18.963Z,50.95
2023-04-20T01:28:47.720Z,46.97
2023-04-20T01:31:16.774Z,56.60
2023-04-20T01:33:46.099Z,54.50
2023-04-20T01:36:14.105Z,64.28
2023-04-20T01:38:42.311Z,58.60
2023-04-20T01:41:10.411Z,63.58
2023-04-20T01:43:39.051Z,64.80
2023-04-20T01:46:07.237Z,69.60
2023-04-20T01:48:35.183Z,58.42
2023-04-20T01:51:03.170Z,66.03
2023-04-20T01:53:31.242Z,73.03
2023-04-20T01:55:59.573Z,75.80
2023-04-20T01:58:27.550Z,75.47
2023-04-20T02:00:55.791Z,78.68
2023-04-20T02:03:23.923Z,77.03
2023-04-20T02:05:52.020Z,79.18
2023-04-20T02:08:21.224Z,85.75
2023-04-20T02:10:49.399Z,89.15
2023-04-20T02:13:17.492Z,100.20
2023-04-20T02:15:50.290Z,88.55
2023-04-20T02:18:19.173Z,71.45
2023-04-20T02:20:47.129Z,78.03
2023-04-20T02:23:17.002Z,79.45
2023-04-20T02:25:45.993Z,90.22
2023-04-20T02:28:13.822Z,75.38
2023-04-20T02:30:41.762Z,73.28
2023-04-20T02:33:12.867Z,79.88
2023-04-20T02:35:41.006Z,78.47
2023-04-20T02:38:11.093Z,76.97
2023-04-20T02:40:40.604Z,77.47
2023-04-20T02:43:09.326Z,76.88
2023-04-20T02:45:38.312Z,95.70
2023-04-20T02:48:07.329Z,78.40
2023-04-20T02:50:38.801Z,79.35
2023-04-20T02:53:14.967Z,90.43
2023-04-20T02:55:45.124Z,82.32
2023-04-20T02:58:36.245Z,77.32
2023-04-20T03:01:12.994Z,80.90
2023-04-20T03:03:41.142Z,84.28
2023-04-20T03:06:12.800Z,83.30
2023-04-20T03:08:45.682Z,78.03
2023-04-20T03:11:32.509Z,77.97
2023-04-20T03:14:01.083Z,69.07
2023-04-20T03:16:29.122Z,79.50
2023-04-20T03:18:59.542Z,74.07
2023-04-20T03:21:27.524Z,71.20
2023-04-20T03:23:55.786Z,66.43
2023-04-20T03:26:24.457Z,74.07
2023-04-20T03:29:12.597Z,70.70
2023-04-20T03:31:40.986Z,76.50
2023-04-20T03:34:10.383Z,59.40
2023-04-20T03:36:39.061Z,84.97
2023-04-20T03:39:07.553Z,59.45
2023-04-20T03:41:35.586Z,67.55
2023-04-20T03:44:03.625Z,64.40
2023-04-20T03:46:32.438Z,62.97
2023-04-20T03:49:00.551Z,72.90
2023-04-20T03:51:28.838Z,72.82
2023-04-20T03:53:57.185Z,69.30
2023-04-20T03:56:27.373Z,71.93
2023-04-20T03:58:57.214Z,75.22
2023-04-20T04:01:27.230Z,59.90
2023-04-20T04:03:55.442Z,60.00
2023-04-20T04:06:23.739Z,70.53
2023-04-20T04:08:53.235Z,73.68
2023-04-20T04:11:21.491Z,65.55
2023-04-20T04:13:50.087Z,56.88
2023-04-20T04:16:18.324Z,55.75
2023-04-20T04:18:47.193Z,66.25
2023-04-20T04:21:15.768Z,70.15
2023-04-20T04:23:48.992Z,66.00
2023-04-20T04:26:31.983Z,63.95
2023-04-20T04:29:00.408Z,63.80
2023-04-20T04:31:28.968Z,61.40
2023-04-20T04:34:05.246Z,67.20
2023-04-20T04:36:49.354Z,64.88
2023-04-20T04:39:22.241Z,66.88
2023-04-20T04:42:02.525Z,59.70
2023-04-20T04:44:40.479Z,56.22
2023-04-20T04:47:11.995Z,67.75
2023-04-20T04:49:40.827Z,53.00
2023-04-20T04:52:09.042Z,62.88
2023-04-20T04:54:38.079Z,56.75
2023-04-20T04:57:06.412Z,53.80
2023-04-20T04:59:34.347Z,55.13
2023-04-20T05:02:02.387Z,54.30
2023-04-20T05:04:33.018Z,55.22
2023-04-20T05:07:01.246Z,59.60
2023-04-20T05:09:33.614Z,52.42
2023-04-20T05:12:03.933Z,51.92
2023-04-20T05:14:32.387Z,49.47
2023-04-20T05:17:01.157Z,53.17
2023-04-20T05:19:29.083Z,55.38
2023-04-20T05:21:58.323Z,61.13
2023-04-20T05:24:26.445Z,47.50
2023-04-20T05:26:54.489Z,46.03
2023-04-20T05:29:22.332Z,50.47
2023-04-20T05:31:50.502Z,49.42
2023-04-20T05:34:19.079Z,49.75
2023-04-20T05:36:47.944Z,64.68
2023-04-20T05:39:16.142Z,75.22
2023-04-20T05:41:45.664Z,72.13
2023-04-20T05:44:13.667Z,57.50
2023-04-20T05:46:41.525Z,55.47
2023-04-20T05:49:09.437Z,61.25
2023-04-20T05:51:38.592Z,60.05
2023-04-20T05:54:06.528Z,60.85
2023-04-20T05:56:35.230Z,66.13
2023-04-20T05:59:03.721Z,66.00
2023-04-20T06:01:32.311Z,51.17
2023-04-20T06:04:01.327Z,60.35
2023-04-20T06:06:29.688Z,60.85
2023-04-20T06:08:58.303Z,67.07
2023-04-20T06:11:26.961Z,61.90
2023-04-20T06:13:57.364Z,64.05
2023-04-20T06:16:27.013Z,60.83
2023-04-20T06:18:55.250Z,64.07
2023-04-20T06:21:25.751Z,61.72
2023-04-20T06:23:53.579Z,60.00
2023-04-20T06:26:22.251Z,59.97
2023-04-20T06:28:53.484Z,63.20
2023-04-20T06:31:22.482Z,59.63
2023-04-20T06:33:58.173Z,67.03
2023-04-20T06:36:27.908Z,62.85
2023-04-20T06:38:56.508Z,73.43
2023-04-20T06:41:24.608Z,62.20
2023-04-20T06:43:57.403Z,58.53
2023-04-20T06:46:25.512Z,68.32
2023-04-20T06:48:53.579Z,57.13
2023-04-20T06:51:24.703Z,59.72
2023-04-20T06:53:52.635Z,60.30
2023-04-20T06:56:20.617Z,73.55
2023-04-20T06:58:48.827Z,63.33
2023-04-20T07:01:18.345Z,60.88
2023-04-20T07:03:49.992Z,59.70
2023-04-20T07:06:25.135Z,68.53
2023-04-20T07:08:52.970Z,63.78
2023-04-20T07:11:26.473Z,77.22
2023-04-20T07:13:54.668Z,67.20
2023-04-20T07:16:23.991Z,67.68
2023-04-20T07:18:53.402Z,66.30
2023-04-20T07:21:22.013Z,55.97
2023-04-20T07:23:50.872Z,56.88
2023-04-20T07:26:23.451Z,59.53
2023-04-20T07:28:52.060Z,70.30
2023-04-20T07:31:20.944Z,57.35
2023-04-20T07:33:49.350Z,47.22
2023-04-20T07:36:20.481Z,53.72
2023-04-20T07:38:53.816Z,53.83
2023-04-20T07:41:23.318Z,46.15
2023-04-20T07:43:52.875Z,51.53
2023-04-20T07:46:27.749Z,64.85
2023-04-20T07:48:58.172Z,58.50
2023-04-20T07:51:30.421Z,57.08
2023-04-20T07:53:58.644Z,70.75
2023-04-20T07:56:26.760Z,64.80
2023-04-20T07:58:56.563Z,75.20
2023-04-20T08:01:26.272Z,80.53
2023-04-20T08:03:56.111Z,60.70
2023-04-20T08:06:25.801Z,62.47
2023-04-20T08:08:53.830Z,53.72
2023-04-20T08:11:21.912Z,50.88
2023-04-20T08:13:50.499Z,49.45
2023-04-20T08:16:24.639Z,49.55
2023-04-20T08:18:52.747Z,38.38
2023-04-20T08:21:46.772Z,33.13
2023-04-20T08:24:14.754Z,34.50
2023-04-20T08:26:44.071Z,23.83
2023-04-20T08:29:12.000Z,26.45
2023-04-20T08:31:41.880Z,28.23
2023-04-20T08:34:09.932Z,19.30
2023-04-20T08:36:40.859Z,16.63
2023-04-20T08:39:20.907Z,18.00
2023-04-20T08:41:50.489Z,15.20
2023-04-20T08:44:21.667Z,14.68
2023-04-20T08:46:51.940Z,12.10
2023-04-20T08:49:21.029Z,9.38
2023-04-20T08:51:50.229Z,12.07
2023-04-20T08:54:18.200Z,10.38
2023-04-20T08:56:46.851Z,15.50
2023-04-20T08:59:37.985Z,16.45
2023-04-20T09:02:11.625Z,18.38
2023-04-20T09:04:40.720Z,20.88
2023-04-20T09:07:25.464Z,18.15
2023-04-20T09:10:04.966Z,9.63
2023-04-20T09:13:28.888Z,13.68
2023-04-20T09:16:18.076Z,13.55
2023-04-20T09:24:44.587Z,20.42
2023-04-20T09:27:17.676Z,13.05
2023-04-20T09:29:58.823Z,12.07
2023-04-20T09:32:33.923Z,11.13
2023-04-20T09:35:08.715Z,14.43
2023-04-20T09:37:46.665Z,4.35
2023-04-20T09:40:24.675Z,11.65
2023-04-20T09:42:55.196Z,11.25
2023-04-20T09:45:24.922Z,13.88
2023-04-20T09:47:55.330Z,8.40
2023-04-20T09:50:34.881Z,13.65
2023-04-20T09:53:15.432Z,13.10
2023-04-20T09:55:50.152Z,9.40
2023-04-20T09:58:23.924Z,24.17
2023-04-20T10:00:51.954Z,13.43
2023-04-20T10:03:27.085Z,14.23
2023-04-20T10:06:01.011Z,12.02
2023-04-20T10:09:02.697Z,15.95
2023-04-20T10:14:28.550Z,11.13
2023-04-20T10:17:07.042Z,9.93
2023-04-20T10:19:41.581Z,11.38
2023-04-20T10:22:16.430Z,8.52
2023-04-20T10:25:05.081Z,9.77
2023-04-20T10:28:01.824Z,11.07
2023-04-20T10:30:38.751Z,7.88
2023-04-20T10:33:15.197Z,9.20
2023-04-20T10:35:46.499Z,10.55
2023-04-20T10:38:41.729Z,11.48
2023-04-20T10:41:14.030Z,8.77
2023-04-20T10:43:44.269Z,5.22
2023-04-20T10:46:28.174Z,5.88
2023-04-20T10:49:01.638Z,7.20
2023-04-20T10:51:33.695Z,6.32
2023-04-20T10:54:08.857Z,8.57
2023-04-20T10:56:55.309Z,8.15
2023-04-20T10:59:24.999Z,10.00
2023-04-20T11:01:55.853Z,15.07
2023-04-20T11:04:34.654Z,12.65
2023-04-20T11:07:08.156Z,15.73
2023-04-20T11:09:58.053Z,13.70
2023-04-20T11:12:27.039Z,17.77
2023-04-20T11:15:01.257Z,17.95
2023-04-20T11:17:38.010Z,18.42
2023-04-20T11:20:11.116Z,18.58
2023-04-20T11:22:40.467Z,17.75
2023-04-20T11:25:11.928Z,18.02
2023-04-20T11:27:41.237Z,15.65
2023-04-20T11:30:10.094Z,14.95
2023-04-20T11:32:39.266Z,12.98
2023-04-20T11:35:09.551Z,20.85
2023-04-20T11:38:04.533Z,18.60
2023-04-20T11:40:59.977Z,20.98
2023-04-20T11:43:29.961Z,11.95
2023-04-20T11:46:00.373Z,10.40
2023-04-20T11:48:31.702Z,12.05
2023-04-20T11:51:19.527Z,11.77
2023-04-20T11:53:47.968Z,14.75
2023-04-20T11:56:26.099Z,11.40
2023-04-20T11:58:58.968Z,7.78
2023-04-20T12:01:27.834Z,7.22
2023-04-20T12:03:56.048Z,5.70
2023-04-20T12:06:29.044Z,9.43
2023-04-20T12:08:58.427Z,5.18
2023-04-20T12:11:27.345Z,6.45
2023-04-20T12:14:00.013Z,6.22
2023-04-20T12:16:29.405Z,4.80
2023-04-20T12:18:58.767Z,4.90
2023-04-20T12:21:56.921Z,5.65
2023-04-20T12:24:51.955Z,7.97
2023-04-20T12:27:25.657Z,8.13
2023-04-20T12:29:53.506Z,11.88
2023-04-20T12:32:21.324Z,8.93
2023-04-20T12:34:50.795Z,9.00
2023-04-20T12:37:20.940Z,9.65
2023-04-20T12:39:49.678Z,8.15
2023-04-20T12:42:37.714Z,13.23
2023-04-20T12:45:07.798Z,9.93
2023-04-20T12:47:36.140Z,6.38
2023-04-20T12:50:04.488Z,8.38
2023-04-20T12:52:34.233Z,7.05
2023-04-20T12:55:02.168Z,7.60
2023-04-20T12:57:50.617Z,7.90
2023-04-20T13:00:19.150Z,10.20
2023-04-20T13:02:49.789Z,12.27
2023-04-20T13:05:23.799Z,10.02
2023-04-20T13:07:52.187Z,8.07
2023-04-20T13:10:23.279Z,7.90
2023-04-20T13:12:57.129Z,14.48
2023-04-20T13:15:38.204Z,12.90
2023-04-20T13:18:10.079Z,14.48
2023-04-20T13:20:47.192Z,13.68
2023-04-20T13:23:17.961Z,10.35
2023-04-20T13:25:53.306Z,14.65
2023-04-20T13:28:25.330Z,15.30
2023-04-20T13:30:57.717Z,14.98
2023-04-20T13:33:34.253Z,14.98
2023-04-20T13:36:04.383Z,10.82
2023-04-20T13:38:34.878Z,13.30
2023-04-20T13:41:03.407Z,19.67
2023-04-20T13:43:33.839Z,12.88
2023-04-20T13:46:04.811Z,14.15
2023-04-20T13:48:53.669Z,20.15
2023-04-20T13:51:24.434Z,15.25
2023-04-20T13:53:53.016Z,17.70
2023-04-20T13:56:22.709Z,18.67
2023-04-20T13:58:54.010Z,16.77
2023-04-20T14:01:22.880Z,14.60
2023-04-20T14:03:57.317Z,17.35
2023-04-20T14:06:25.733Z,18.05
2023-04-20T14:08:53.862Z,18.67
2023-04-20T14:11:24.338Z,15.88
2023-04-20T14:13:56.060Z,16.45
2023-04-20T14:16:25.705Z,20.40
2023-04-20T14:18:56.404Z,20.48
2023-04-20T14:21:24.360Z,24.13
2023-04-20T14:23:55.223Z,18.88
2023-04-20T14:26:23.365Z,22.83
2023-04-20T14:28:52.735Z,21.60
2023-04-20T14:31:21.784Z,22.63
2023-04-20T14:33:50.015Z,21.15
2023-04-20T14:36:18.582Z,23.00
2023-04-20T14:38:48.207Z,16.13
2023-04-20T14:41:17.504Z,18.25
2023-04-20T14:43:48.015Z,13.88
2023-04-20T14:46:16.793Z,15.57
2023-04-20T14:48:46.420Z,20.48
2023-04-20T14:51:14.679Z,18.48
2023-04-20T14:53:43.677Z,13.65
2023-04-20T14:56:14.445Z,14.70
2023-04-20T14:58:42.934Z,16.85
2023-04-20T15:01:12.917Z,13.88
2023-04-20T15:03:44.804Z,13.02
2023-04-20T15:06:12.851Z,11.65
2023-04-20T15:08:43.111Z,12.02
2023-04-20T15:11:12.883Z,14.02
2023-04-20T15:13:44.076Z,11.90
2023-04-20T15:16:15.997Z,15.50
2023-04-20T15:18:44.481Z,13.25
2023-04-20T15:21:12.921Z,14.07
2023-04-20T15:23:40.841Z,16.60
2023-04-20T15:26:09.310Z,12.30
2023-04-20T15:28:40.897Z,12.48
2023-04-20T15:31:09.099Z,10.20
2023-04-20T15:33:37.271Z,13.43
2023-04-20T15:36:05.669Z,13.80
2023-04-20T15:38:34.205Z,15.18
2023-04-20T15:41:02.940Z,17.10
2023-04-20T15:43:31.280Z,15.13
2023-04-20T15:45:59.238Z,18.98
2023-04-20T15:48:49.001Z,16.90
2023-04-20T15:51:20.163Z,16.15
2023-04-20T15:53:51.276Z,23.08
2023-04-20T15:56:22.334Z,18.50
2023-04-20T15:58:51.100Z,22.63
2023-04-20T16:01:21.642Z,20.83
2023-04-20T16:04:07.858Z,20.67
2023-04-20T16:06:39.919Z,22.05
2023-04-20T16:09:14.259Z,22.25
2023-04-20T16:11:45.831Z,24.73
2023-04-20T16:14:14.235Z,23.38
2023-04-20T16:16:43.747Z,23.55
2023-04-20T16:19:13.580Z,24.88
2023-04-20T16:21:42.103Z,27.55
2023-04-20T16:24:12.945Z,32.13
2023-04-20T16:26:42.014Z,29.52
2023-04-20T16:29:10.182Z,40.90
2023-04-20T16:31:38.250Z,34.70
2023-04-20T16:34:09.736Z,30.83
2023-04-20T16:36:37.676Z,33.55
2023-04-20T16:39:07.071Z,34.50
2023-04-20T16:41:34.936Z,38.25
2023-04-20T16:44:04.956Z,34.85
2023-04-20T16:46:33.375Z,34.40
2023-04-20T16:49:01.919Z,38.80
2023-04-20T16:51:30.165Z,39.97
2023-04-20T16:54:01.442Z,38.10
2023-04-20T16:56:32.876Z,39.33
2023-04-20T16:59:01.523Z,39.38
2023-04-20T17:01:37.146Z,43.83
2023-04-20T17:04:05.897Z,41.70
2023-04-20T17:06:34.344Z,48.97
2023-04-20T17:09:07.338Z,40.33
2023-04-20T17:11:43.238Z,44.47
2023-04-20T17:14:16.677Z,46.35
2023-04-20T17:16:45.247Z,41.20
2023-04-20T17:19:14.162Z,48.90
2023-04-20T17:21:45.975Z,46.85
2023-04-20T17:24:19.525Z,36.58
2023-04-20T17:27:06.030Z,32.17
2023-04-20T17:29:38.683Z,31.50
2023-04-20T17:32:09.460Z,28.67
2023-04-20T17:34:40.064Z,26.67
2023-04-20T17:37:09.127Z,27.55
2023-04-20T17:39:37.185Z,34.42
2023-04-20T17:42:05.246Z,35.63
2023-04-20T17:44:34.582Z,33.22
2023-04-20T17:47:06.765Z,39.70
2023-04-20T17:49:39.649Z,27.27
2023-04-20T17:52:12.750Z,36.05
2023-04-20T17:54:44.188Z,37.42
2023-04-20T17:57:12.384Z,44.08
2023-04-20T17:59:42.519Z,48.00
2023-04-20T18:02:13.483Z,39.13
2023-04-20T18:04:41.967Z,58.55
2023-04-20T18:07:13.331Z,42.40
2023-04-20T18:09:45.942Z,45.90
2023-04-20T18:12:15.935Z,49.40
2023-04-20T18:14:47.623Z,53.33
2023-04-20T18:17:18.580Z,52.95
2023-04-20T18:19:50.898Z,60.03
2023-04-20T18:22:21.126Z,55.03
2023-04-20T18:24:49.075Z,57.80
2023-04-20T18:27:17.424Z,56.17
2023-04-20T18:29:46.705Z,63.50
2023-04-20T18:32:19.145Z,74.07
2023-04-20T18:35:08.625Z,60.63
2023-04-20T18:37:37.374Z,66.25
2023-04-20T18:40:11.329Z,75.10
2023-04-20T18:42:40.139Z,76.30
2023-04-20T18:45:13.253Z,70.50
2023-04-20T18:47:48.342Z,81.25
2023-04-20T18:50:16.310Z,76.13
2023-04-20T18:52:51.272Z,79.80
2023-04-20T18:55:19.849Z,72.78
2023-04-20T18:57:48.112Z,81.68
2023-04-20T19:01:07.444Z,76.88
2023-04-20T19:03:35.957Z,84.55
2023-04-20T19:06:16.387Z,82.75
2023-04-20T19:08:45.274Z,84.10
2023-04-20T19:11:13.374Z,88.28
2023-04-20T19:13:45.285Z,88.43
2023-04-20T19:16:13.564Z,94.00
2023-04-20T19:18:42.177Z,82.72
2023-04-20T19:21:12.933Z,82.28
2023-04-20T19:23:41.548Z,87.38
2023-04-20T19:26:11.276Z,89.05
2023-04-20T19:28:41.847Z,96.18
2023-04-20T19:31:13.796Z,95.65
2023-04-20T19:33:42.497Z,105.30
2023-04-20T19:36:15.357Z,100.15
2023-04-20T19:38:43.480Z,99.53
2023-04-20T19:41:12.254Z,97.30
2023-04-20T19:43:41.023Z,103.72
2023-04-20T19:46:10.104Z,78.32
2023-04-20T19:48:38.275Z,88.63
2023-04-20T19:51:07.860Z,77.25
2023-04-20T19:53:36.813Z,77.95
2023-04-20T19:56:07.757Z,65.90
2023-04-20T19:58:37.332Z,76.25
2023-04-20T20:01:05.723Z,59.00
2023-04-20T20:03:34.477Z,72.85
2023-04-20T20:06:24.776Z,66.38
2023-04-20T20:08:52.950Z,59.78
2023-04-20T20:11:22.720Z,60.92
2023-04-20T20:13:50.800Z,52.42
2023-04-20T20:16:22.461Z,67.90
2023-04-20T20:18:53.300Z,58.38
2023-04-20T20:21:21.807Z,51.90
2023-04-20T20:23:49.973Z,55.78
2023-04-20T20:26:18.043Z,55.47
2023-04-20T20:28:46.483Z,48.90
2023-04-20T20:31:14.355Z,51.05
2023-04-20T20:33:48.276Z,64.75
2023-04-20T20:36:21.288Z,57.03
2023-04-20T20:38:53.406Z,43.53
2023-04-20T20:41:23.078Z,57.42
2023-04-20T20:43:55.513Z,51.80
2023-04-20T20:46:24.158Z,43.53
2023-04-20T20:48:52.057Z,44.13
2023-04-20T20:51:20.132Z,44.50
2023-04-20T20:53:48.489Z,40.58
2023-04-20T20:56:17.043Z,43.60
2023-04-20T20:58:47.013Z,36.92
2023-04-20T21:01:14.891Z,36.08
2023-04-20T21:03:43.805Z,43.17
2023-04-20T21:06:12.183Z,43.88
2023-04-20T21:08:41.440Z,35.15
2023-04-20T21:11:09.766Z,44.00
2023-04-20T21:13:41.340Z,41.10
2023-04-20T21:16:09.438Z,56.13
2023-04-20T21:18:39.051Z,54.58
2023-04-20T21:21:07.392Z,37.83
2023-04-20T21:23:37.844Z,36.40
2023-04-20T21:26:05.896Z,39.38
2023-04-20T21:28:34.129Z,49.63
2023-04-20T21:31:02.430Z,35.22
2023-04-20T21:33:30.712Z,36.20
2023-04-20T21:35:59.102Z,32.58
2023-04-20T21:38:27.593Z,35.17
2023-04-20T21:40:56.049Z,34.90
2023-04-20T21:43:25.354Z,38.58
2023-04-20T21:45:53.360Z,30.77
2023-04-20T21:48:21.733Z,40.05
2023-04-20T21:50:49.893Z,31.95
2023-04-20T21:53:18.636Z,42.60
2023-04-20T21:55:46.841Z,42.90
2023-04-20T21:58:39.940Z,38.28
2023-04-20T22:01:10.065Z,32.53
2023-04-20T22:03:38.444Z,32.15
2023-04-20T22:06:07.355Z,45.53
2023-04-20T22:08:39.914Z,32.42
2023-04-20T22:11:08.412Z,32.70
2023-04-20T22:13:37.262Z,39.60
2023-04-20T22:16:24.762Z,53.10
2023-04-20T22:18:52.778Z,36.88
2023-04-20T22:21:21.588Z,36.35
2023-04-20T22:23:49.631Z,33.33
2023-04-20T22:26:17.416Z,28.58
2023-04-20T22:28:45.295Z,35.72
2023-04-20T22:31:13.126Z,26.58
2023-04-20T22:33:41.832Z,24.67
2023-04-20T22:36:10.057Z,31.05
2023-04-20T22:38:48.585Z,29.02
2023-04-20T22:41:17.597Z,34.65
2023-04-20T22:43:45.578Z,37.17
2023-04-20T22:46:14.591Z,37.20
2023-04-20T22:48:43.078Z,22.40
2023-04-20T22:51:12.057Z,36.08
2023-04-20T22:53:40.247Z,33.45
2023-04-20T22:56:08.512Z,39.60
2023-04-20T22:58:36.539Z,35.67
2023-04-20T23:01:04.654Z,36.90
2023-04-20T23:03:33.508Z,35.40
2023-04-20T23:06:03.738Z,29.67
2023-04-20T23:08:33.799Z,35.60
2023-04-20T23:11:02.636Z,36.75
2023-04-20T23:13:31.735Z,37.83
2023-04-20T23:15:59.682Z,42.50
2023-04-20T23:18:27.786Z,34.03
2023-04-20T23:20:56.985Z,33.70
2023-04-20T23:23:25.098Z,34.35
2023-04-20T23:25:53.409Z,44.75
2023-04-20T23:28:21.455Z,41.53
2023-04-20T23:30:49.377Z,33.72
2023-04-20T23:33:17.542Z,45.13
2023-04-20T23:35:45.517Z,35.20
2023-04-20T23:38:13.516Z,41.90
2023-04-20T23:40:41.518Z,40.70
2023-04-20T23:43:09.221Z,40.42
2023-04-20T23:45:37.207Z,38.95
2023-04-20T23:48:06.067Z,45.70
2023-04-20T23:50:34.604Z,41.00
2023-04-20T23:53:05.855Z,43.33
2023-04-20T23:55:34.072Z,47.47
2023-04-20T23:58:34.865Z,54.35
